createdAt,value
2022-09-01T00:01:31.428Z,21.40
2022-09-01T00:04:03.068Z,21.40
2022-09-01T00:06:33.128Z,21.40
2022-09-01T00:09:02.399Z,21.40
2022-09-01T00:11:31.409Z,21.30
2022-09-01T00:14:01.457Z,21.30
2022-09-01T00:16:30.993Z,21.30
2022-09-01T00:18:58.733Z,21.30
2022-09-01T00:21:28.398Z,21.30
2022-09-01T00:23:56.044Z,21.30
2022-09-01T00:26:23.737Z,21.20
2022-09-01T00:28:51.461Z,21.20
2022-09-01T00:31:19.930Z,21.20
2022-09-01T00:33:47.954Z,21.20
2022-09-01T00:36:16.510Z,21.20
2022-09-01T00:38:44.590Z,21.20
2022-09-01T00:41:12.837Z,21.10
2022-09-01T00:43:45.355Z,21.10
2022-09-01T00:46:16.646Z,21.10
2022-09-01T00:48:52.542Z,21.10
2022-09-01T00:51:20.274Z,21.10
2022-09-01T00:53:49.072Z,21.00
2022-09-01T00:56:17.154Z,21.00
2022-09-01T00:58:44.794Z,21.00
2022-09-01T01:01:13.092Z,21.00
2022-09-01T01:03:46.895Z,21.00
2022-09-01T01:06:16.631Z,20.90
2022-09-01T01:08:49.213Z,20.90
2022-09-01T01:11:17.685Z,20.90
2022-09-01T01:13:51.144Z,20.90
2022-09-01T01:16:19.411Z,20.90
2022-09-01T01:18:47.460Z,20.80
2022-09-01T01:21:38.351Z,20.80
2022-09-01T01:24:26.223Z,20.80
2022-09-01T01:26:55.160Z,20.80
2022-09-01T01:29:23.261Z,20.80
2022-09-01T01:31:53.836Z,20.70
2022-09-01T01:34:22.947Z,20.70
2022-09-01T01:36:50.576Z,20.70
2022-09-01T01:39:21.067Z,20.70
2022-09-01T01:41:50.661Z,20.70
2022-09-01T01:44:20.190Z,20.60
2022-09-01T01:46:50.069Z,20.60
2022-09-01T01:49:20.172Z,20.60
2022-09-01T01:51:48.868Z,20.60
2022-09-01T01:54:20.032Z,20.60
2022-09-01T01:56:47.993Z,20.60
2022-09-01T01:59:17.052Z,20.50
2022-09-01T02:01:49.080Z,20.50
2022-09-01T02:04:17.833Z,20.50
2022-09-01T02:06:46.169Z,20.50
2022-09-01T02:09:15.370Z,20.50
2022-09-01T02:11:44.601Z,20.40
2022-09-01T02:14:13.354Z,20.50
2022-09-01T02:16:41.091Z,20.50
2022-09-01T02:19:12.113Z,20.40
2022-09-01T02:21:53.369Z,20.40
2022-09-01T02:24:21.486Z,20.40
2022-09-01T02:26:49.279Z,20.40
2022-09-01T02:29:20.950Z,20.30
2022-09-01T02:31:50.698Z,20.30
2022-09-01T02:34:18.889Z,20.30
2022-09-01T02:36:48.406Z,20.30
2022-09-01T02:39:17.161Z,20.30
2022-09-01T02:41:44.835Z,20.30
2022-09-01T02:44:12.586Z,20.30
2022-09-01T02:46:42.880Z,20.20
2022-09-01T02:49:17.724Z,20.20
2022-09-01T02:51:46.251Z,20.20
2022-09-01T02:54:15.320Z,20.20
2022-09-01T02:56:44.021Z,20.20
2022-09-01T02:59:12.899Z,20.10
2022-09-01T03:01:41.013Z,20.10
2022-09-01T03:04:09.915Z,20.10
2022-09-01T03:06:38.077Z,20.10
2022-09-01T03:09:07.262Z,20.10
2022-09-01T03:11:36.464Z,20.00
2022-09-01T03:14:04.989Z,20.00
2022-09-01T03:16:33.507Z,20.00
2022-09-01T03:19:03.144Z,20.00
2022-09-01T03:21:32.480Z,20.00
2022-09-01T03:24:01.944Z,20.00
2022-09-01T03:26:29.640Z,20.00
2022-09-01T03:28:57.360Z,19.90
2022-09-01T03:31:27.393Z,19.90
2022-09-01T03:33:58.764Z,19.90
2022-09-01T03:36:27.595Z,19.90
2022-09-01T03:38:55.773Z,19.80
2022-09-01T03:41:24.954Z,19.90
2022-09-01T03:43:54.857Z,19.90
2022-09-01T03:46:22.964Z,19.80
2022-09-01T03:48:55.925Z,19.80
2022-09-01T03:51:24.225Z,19.80
2022-09-01T03:53:55.276Z,19.80
2022-09-01T03:56:24.022Z,19.80
2022-09-01T03:58:52.290Z,19.70
2022-09-01T04:01:20.172Z,19.70
2022-09-01T04:04:03.294Z,19.70
2022-09-01T04:06:30.953Z,19.70
2022-09-01T04:09:03.398Z,19.70
2022-09-01T04:11:32.190Z,19.60
2022-09-01T04:14:00.599Z,19.60
2022-09-01T04:16:47.523Z,19.60
2022-09-01T04:19:20.735Z,19.60
2022-09-01T04:21:50.789Z,19.60
2022-09-01T04:24:19.439Z,19.60
2022-09-01T04:26:49.492Z,19.50
2022-09-01T04:29:18.987Z,19.50
2022-09-01T04:31:48.655Z,19.50
2022-09-01T04:34:16.661Z,19.50
2022-09-01T04:36:45.612Z,19.50
2022-09-01T04:39:16.212Z,19.50
2022-09-01T04:41:45.889Z,19.50
2022-09-01T04:44:15.932Z,19.40
2022-09-01T04:46:46.277Z,19.40
2022-09-01T04:49:19.719Z,19.40
2022-09-01T04:51:53.103Z,19.40
2022-09-01T04:54:23.107Z,19.40
2022-09-01T04:56:52.285Z,19.40
2022-09-01T04:59:21.906Z,19.30
2022-09-01T05:01:50.620Z,19.30
2022-09-01T05:04:27.677Z,19.30
2022-09-01T05:06:59.642Z,19.30
2022-09-01T05:09:29.136Z,19.30
2022-09-01T05:11:57.861Z,19.30
2022-09-01T05:14:26.270Z,19.30
2022-09-01T05:16:58.745Z,19.30
2022-09-01T05:19:29.214Z,19.30
2022-09-01T05:21:57.809Z,19.30
2022-09-01T05:24:39.830Z,19.30
2022-09-01T05:27:10.394Z,19.30
2022-09-01T05:29:41.122Z,19.30
2022-09-01T05:32:11.117Z,19.30
2022-09-01T05:34:40.017Z,19.30
2022-09-01T05:37:08.706Z,19.30
2022-09-01T05:39:37.928Z,19.20
2022-09-01T05:42:08.190Z,19.30
2022-09-01T05:44:37.236Z,19.30
2022-09-01T05:47:06.347Z,19.30
2022-09-01T05:49:34.004Z,19.30
2022-09-01T05:52:01.647Z,19.30
2022-09-01T05:54:29.264Z,19.30
2022-09-01T05:57:08.399Z,19.20
2022-09-01T06:09:48.278Z,19.10
2022-09-01T06:12:23.661Z,18.40
2022-09-01T06:14:52.912Z,18.20
2022-09-01T06:17:24.492Z,18.20
2022-09-01T06:19:54.757Z,18.10
2022-09-01T06:22:23.908Z,18.10
2022-09-01T06:24:58.005Z,18.10
2022-09-01T06:27:29.507Z,18.00
2022-09-01T06:29:57.977Z,18.00
2022-09-01T06:32:25.755Z,18.00
2022-09-01T06:34:53.672Z,18.00
2022-09-01T06:37:22.778Z,18.00
2022-09-01T07:04:57.987Z,18.10
2022-09-01T07:10:21.371Z,18.90
2022-09-01T07:13:06.888Z,19.00
2022-09-01T07:18:27.181Z,19.30
2022-09-01T07:21:07.035Z,19.40
2022-09-01T07:26:33.740Z,19.70
2022-09-01T07:29:04.084Z,19.80
2022-09-01T07:31:51.263Z,19.90
2022-09-01T07:34:38.640Z,20.00
2022-09-01T07:42:55.761Z,20.10
2022-09-01T07:45:31.248Z,20.40
2022-09-01T07:48:00.021Z,20.40
2022-09-01T07:53:18.986Z,20.40
2022-09-01T07:55:49.845Z,20.40
2022-09-01T07:58:17.561Z,20.40
2022-09-01T08:00:45.901Z,20.50
2022-09-01T08:03:14.297Z,20.50
2022-09-01T08:05:42.310Z,20.50
2022-09-01T08:08:29.071Z,20.50
2022-09-01T08:11:05.423Z,20.50
2022-09-01T08:13:41.628Z,20.50
2022-09-01T08:16:18.176Z,20.60
2022-09-01T08:18:48.593Z,20.60
2022-09-01T08:21:18.354Z,20.60
2022-09-01T08:23:47.702Z,20.60
2022-09-01T08:26:16.908Z,20.60
2022-09-01T08:28:46.191Z,20.70
2022-09-01T08:31:17.748Z,20.70
2022-09-01T08:33:47.383Z,20.70
2022-09-01T08:36:19.031Z,20.70
2022-09-01T08:38:51.250Z,20.80
2022-09-01T08:41:38.235Z,20.80
2022-09-01T08:44:09.824Z,20.80
2022-09-01T08:46:42.585Z,20.90
2022-09-01T08:49:30.749Z,20.90
2022-09-01T08:52:00.734Z,20.90
2022-09-01T08:54:34.692Z,21.00
2022-09-01T08:57:06.236Z,21.00
2022-09-01T08:59:33.968Z,21.10
2022-09-01T09:02:19.198Z,21.10
2022-09-01T09:04:52.928Z,21.10
2022-09-01T09:07:32.612Z,21.20
2022-09-01T09:10:07.318Z,21.20
2022-09-01T09:12:54.501Z,21.30
2022-09-01T09:15:41.851Z,21.30
2022-09-01T09:18:39.364Z,21.40
2022-09-01T09:21:12.317Z,21.40
2022-09-01T09:23:42.933Z,21.50
2022-09-01T09:26:10.951Z,21.50
2022-09-01T09:28:40.522Z,21.60
2022-09-01T09:31:26.614Z,21.60
2022-09-01T09:33:55.364Z,21.70
2022-09-01T09:36:25.745Z,21.70
2022-09-01T09:39:05.674Z,21.80
2022-09-01T09:41:34.276Z,21.90
2022-09-01T09:44:05.782Z,21.90
2022-09-01T09:46:33.446Z,22.00
2022-09-01T09:49:37.325Z,22.10
2022-09-01T09:52:09.455Z,22.10
2022-09-01T09:54:38.258Z,22.20
2022-09-01T09:57:11.054Z,22.30
2022-09-01T09:59:57.632Z,22.40
2022-09-01T10:02:31.027Z,22.50
2022-09-01T10:04:59.262Z,22.60
2022-09-01T10:07:28.903Z,22.70
2022-09-01T10:09:58.828Z,22.70
2022-09-01T10:12:27.051Z,22.80
2022-09-01T10:15:12.423Z,22.90
2022-09-01T10:17:43.624Z,22.90
2022-09-01T10:20:20.943Z,23.00
2022-09-01T10:22:50.749Z,23.10
2022-09-01T10:25:21.683Z,23.20
2022-09-01T10:27:59.206Z,23.40
2022-09-01T10:30:27.417Z,23.50
2022-09-01T10:33:07.741Z,23.60
2022-09-01T10:35:44.664Z,23.70
2022-09-01T10:38:16.829Z,23.90
2022-09-01T10:40:50.018Z,24.00
2022-09-01T10:43:37.901Z,24.10
2022-09-01T10:46:15.631Z,24.10
2022-09-01T10:48:48.415Z,24.10
2022-09-01T10:51:21.145Z,24.30
2022-09-01T10:53:51.261Z,24.40
2022-09-01T10:56:28.502Z,24.40
2022-09-01T11:02:28.085Z,24.50
2022-09-01T11:04:56.270Z,24.70
2022-09-01T11:07:50.379Z,24.80
2022-09-01T11:10:32.004Z,24.80
2022-09-01T11:13:19.646Z,24.80
2022-09-01T11:15:47.757Z,24.90
2022-09-01T11:18:27.340Z,24.90
2022-09-01T11:20:57.778Z,25.00
2022-09-01T11:23:27.909Z,25.10
2022-09-01T11:28:45.258Z,25.20
2022-09-01T11:31:17.654Z,25.20
2022-09-01T11:33:51.418Z,25.40
2022-09-01T11:36:29.887Z,25.40
2022-09-01T11:39:00.425Z,25.50
2022-09-01T11:41:34.955Z,25.50
2022-09-01T11:44:04.274Z,25.60
2022-09-01T11:46:35.049Z,25.70
2022-09-01T11:49:07.587Z,25.80
2022-09-01T11:51:48.535Z,25.80
2022-09-01T11:54:16.783Z,25.90
2022-09-01T11:56:44.396Z,26.10
2022-09-01T11:59:12.227Z,26.20
2022-09-01T12:01:41.091Z,26.20
2022-09-01T12:04:26.169Z,26.20
2022-09-01T12:06:56.076Z,26.30
2022-09-01T12:09:23.663Z,26.40
2022-09-01T12:11:52.728Z,26.40
2022-09-01T12:14:22.100Z,26.50
2022-09-01T12:16:57.895Z,26.50
2022-09-01T12:19:26.999Z,26.60
2022-09-01T12:22:00.711Z,26.70
2022-09-01T12:24:29.628Z,26.80
2022-09-01T12:26:58.969Z,26.80
2022-09-01T12:29:31.436Z,26.90
2022-09-01T12:32:00.301Z,27.00
2022-09-01T12:34:31.092Z,27.10
2022-09-01T12:37:04.965Z,27.10
2022-09-01T12:39:40.523Z,27.20
2022-09-01T12:42:08.581Z,27.30
2022-09-01T12:44:39.601Z,27.40
2022-09-01T12:47:13.404Z,27.50
2022-09-01T12:49:50.821Z,27.50
2022-09-01T12:52:20.429Z,27.60
2022-09-01T12:54:49.494Z,27.50
2022-09-01T12:57:27.805Z,27.60
2022-09-01T13:00:18.265Z,27.60
2022-09-01T13:02:52.128Z,27.60
2022-09-01T13:05:19.869Z,27.60
2022-09-01T13:07:47.529Z,27.70
2022-09-01T13:10:15.842Z,27.80
2022-09-01T13:12:43.987Z,27.90
2022-09-01T13:17:45.975Z,27.90
2022-09-01T13:20:13.934Z,27.80
2022-09-01T13:22:42.363Z,27.80
2022-09-01T13:25:11.298Z,27.90
2022-09-01T13:27:44.052Z,27.90
2022-09-01T13:30:13.117Z,27.90
2022-09-01T13:33:18.802Z,27.70
2022-09-01T13:35:28.841Z,27.70
2022-09-01T13:37:57.124Z,27.70
2022-09-01T13:40:25.115Z,27.60
2022-09-01T13:42:54.131Z,27.50
2022-09-01T13:45:24.464Z,27.40
2022-09-01T13:53:31.112Z,27.20
2022-09-01T13:55:58.933Z,27.20
2022-09-01T13:58:26.662Z,27.10
2022-09-01T14:00:55.013Z,27.10
2022-09-01T14:03:23.591Z,27.10
2022-09-01T14:05:51.545Z,27.10
2022-09-01T14:08:20.889Z,27.10
2022-09-01T14:10:51.269Z,27.10
2022-09-01T14:13:19.896Z,27.00
2022-09-01T14:15:48.421Z,27.00
2022-09-01T14:18:17.174Z,27.00
2022-09-01T14:20:47.705Z,26.90
2022-09-01T14:25:46.946Z,26.90
2022-09-01T14:28:16.402Z,26.80
2022-09-01T14:30:47.778Z,26.80
2022-09-01T14:33:15.911Z,26.70
2022-09-01T14:35:45.390Z,26.70
2022-09-01T14:38:13.433Z,26.70
2022-09-01T14:40:41.826Z,26.70
2022-09-01T14:43:12.843Z,26.60
2022-09-01T14:45:41.251Z,26.60
2022-09-01T14:48:09.593Z,26.60
2022-09-01T14:50:40.821Z,26.60
2022-09-01T14:53:08.940Z,26.50
2022-09-01T14:55:36.736Z,26.50
2022-09-01T14:58:05.053Z,26.50
2022-09-01T15:00:35.702Z,26.40
2022-09-01T15:03:03.819Z,26.60
2022-09-01T15:05:39.409Z,26.30
2022-09-01T15:13:06.173Z,26.10
2022-09-01T15:15:33.831Z,26.20
2022-09-01T15:18:02.080Z,26.30
2022-09-01T15:20:48.631Z,26.50
2022-09-01T15:23:22.007Z,26.30
2022-09-01T15:25:51.393Z,26.40
2022-09-01T15:28:19.189Z,26.30
2022-09-01T15:30:47.212Z,26.30
2022-09-01T15:33:16.357Z,26.70
2022-09-01T15:35:44.725Z,26.40
2022-09-01T15:38:17.100Z,26.30
2022-09-01T15:40:45.935Z,26.30
2022-09-01T15:43:23.421Z,26.10
2022-09-01T15:45:51.047Z,26.00
2022-09-01T15:48:19.469Z,26.00
2022-09-01T15:50:47.118Z,25.90
2022-09-01T15:53:14.821Z,25.80
2022-09-01T15:55:44.671Z,25.70
2022-09-01T15:58:13.984Z,25.80
2022-09-01T16:00:42.396Z,25.70
2022-09-01T16:03:10.454Z,25.90
2022-09-01T16:08:09.504Z,25.70
2022-09-01T16:10:39.790Z,25.60
2022-09-01T16:18:04.651Z,25.60
2022-09-01T16:20:40.288Z,25.70
2022-09-01T16:23:07.893Z,25.40
2022-09-01T16:25:35.572Z,25.50
2022-09-01T16:28:11.264Z,25.40
2022-09-01T16:30:39.632Z,25.60
2022-09-01T16:33:19.977Z,25.40
2022-09-01T16:35:57.299Z,25.40
2022-09-01T16:38:39.569Z,25.30
2022-09-01T16:41:16.152Z,25.40
2022-09-01T16:43:48.409Z,25.30
2022-09-01T16:46:19.693Z,25.40
2022-09-01T16:49:07.594Z,25.30
2022-09-01T16:51:45.117Z,25.20
2022-09-01T16:54:20.762Z,25.10
2022-09-01T16:56:51.389Z,25.10
2022-09-01T16:59:27.594Z,25.10
2022-09-01T17:02:16.066Z,25.10
2022-09-01T17:04:48.498Z,25.00
2022-09-01T17:07:30.146Z,25.00
2022-09-01T17:10:19.189Z,24.90
2022-09-01T17:12:53.037Z,24.80
2022-09-01T17:15:32.962Z,24.80
2022-09-01T17:18:22.032Z,24.70
2022-09-01T17:20:55.645Z,24.60
2022-09-01T17:23:28.927Z,24.60
2022-09-01T17:26:01.495Z,24.50
2022-09-01T17:28:46.358Z,24.40
2022-09-01T17:31:16.931Z,24.30
2022-09-01T17:33:47.880Z,24.30
2022-09-01T17:36:25.288Z,24.20
2022-09-01T17:39:21.728Z,24.10
2022-09-01T17:41:55.733Z,24.10
2022-09-01T17:44:35.452Z,23.90
2022-09-01T17:47:23.670Z,23.90
2022-09-01T17:49:54.379Z,23.90
2022-09-01T17:52:31.115Z,23.80
2022-09-01T17:55:01.033Z,23.70
2022-09-01T17:57:40.240Z,23.60
2022-09-01T18:00:08.340Z,23.60
2022-09-01T18:02:47.944Z,23.50
2022-09-01T18:05:19.296Z,23.50
2022-09-01T18:08:11.324Z,23.40
2022-09-01T18:10:45.293Z,23.40
2022-09-01T18:13:42.328Z,23.30
2022-09-01T18:16:15.570Z,23.20
2022-09-01T18:18:45.826Z,23.20
2022-09-01T18:21:26.009Z,23.10
2022-09-01T18:23:56.479Z,23.10
2022-09-01T18:26:36.532Z,23.00
2022-09-01T18:29:05.669Z,22.90
2022-09-01T18:31:37.795Z,22.90
2022-09-01T18:34:14.098Z,22.80
2022-09-01T18:36:54.185Z,22.70
2022-09-01T18:39:21.771Z,22.70
2022-09-01T18:41:56.564Z,22.60
2022-09-01T18:44:30.443Z,22.60
2022-09-01T18:47:01.053Z,22.50
2022-09-01T18:49:40.410Z,22.60
2022-09-01T18:52:08.947Z,22.70
2022-09-01T18:54:42.274Z,22.70
2022-09-01T18:57:12.842Z,22.70
2022-09-01T18:59:52.867Z,22.70
2022-09-01T19:02:29.889Z,22.80
2022-09-01T19:04:59.282Z,22.90
2022-09-01T19:07:27.355Z,22.80
2022-09-01T19:09:58.036Z,22.90
2022-09-01T19:12:31.183Z,22.90
2022-09-01T19:15:17.659Z,22.90
2022-09-01T19:17:48.427Z,22.90
2022-09-01T19:20:19.511Z,22.90
2022-09-01T19:22:50.256Z,22.90
2022-09-01T19:25:33.407Z,22.90
2022-09-01T19:28:07.087Z,23.00
2022-09-01T19:30:36.131Z,23.00
2022-09-01T19:33:06.132Z,23.00
2022-09-01T19:35:35.241Z,23.00
2022-09-01T19:38:07.491Z,23.00
2022-09-01T19:40:36.566Z,23.00
2022-09-01T19:43:07.116Z,23.00
2022-09-01T19:45:56.547Z,23.00
2022-09-01T19:48:30.146Z,23.00
2022-09-01T19:51:04.745Z,23.00
2022-09-01T19:53:41.660Z,23.00
2022-09-01T19:56:25.554Z,23.00
2022-09-01T19:58:55.189Z,22.90
2022-09-01T20:01:43.145Z,22.90
2022-09-01T20:04:18.221Z,22.90
2022-09-01T20:06:48.752Z,22.90
2022-09-01T20:09:20.136Z,22.90
2022-09-01T20:11:48.372Z,22.90
2022-09-01T20:14:34.210Z,22.90
2022-09-01T20:17:06.099Z,22.90
2022-09-01T20:19:45.824Z,22.90
2022-09-01T20:22:13.425Z,22.90
2022-09-01T20:24:41.474Z,22.90
2022-09-01T20:27:15.444Z,22.90
2022-09-01T20:30:01.855Z,22.80
2022-09-01T20:32:33.320Z,22.80
2022-09-01T20:35:09.068Z,22.80
2022-09-01T20:37:43.967Z,22.80
2022-09-01T20:40:13.379Z,22.80
2022-09-01T20:43:04.111Z,22.80
2022-09-01T20:45:32.053Z,22.70
2022-09-01T20:48:01.766Z,22.70
2022-09-01T20:50:37.933Z,22.70
2022-09-01T20:53:11.556Z,22.70
2022-09-01T20:55:39.132Z,22.70
2022-09-01T20:58:06.795Z,22.70
2022-09-01T21:00:38.348Z,22.70
2022-09-01T21:03:14.331Z,22.60
2022-09-01T21:05:59.784Z,22.60
2022-09-01T21:08:44.072Z,22.60
2022-09-01T21:11:14.696Z,22.60
2022-09-01T21:13:42.275Z,22.60
2022-09-01T21:16:26.678Z,22.60
2022-09-01T21:19:13.509Z,22.50
2022-09-01T21:22:00.358Z,22.50
2022-09-01T21:24:28.018Z,22.50
2022-09-01T21:26:56.989Z,22.50
2022-09-01T21:29:37.310Z,22.40
2022-09-01T21:32:05.329Z,22.40
2022-09-01T21:34:33.009Z,22.40
2022-09-01T21:37:01.383Z,22.40
2022-09-01T21:39:29.134Z,22.40
2022-09-01T21:41:57.834Z,22.40
2022-09-01T21:44:25.605Z,22.30
2022-09-01T21:46:53.538Z,22.30
2022-09-01T21:49:21.142Z,22.30
2022-09-01T21:51:50.007Z,22.20
2022-09-01T21:54:17.953Z,22.30
2022-09-01T21:56:46.131Z,22.20
2022-09-01T21:59:16.926Z,22.20
2022-09-01T22:01:45.161Z,22.20
2022-09-01T22:04:13.243Z,22.20
2022-09-01T22:06:41.223Z,22.20
2022-09-01T22:09:20.508Z,22.10
2022-09-01T22:11:50.243Z,22.10
2022-09-01T22:14:18.742Z,22.10
2022-09-01T22:16:47.021Z,22.10
2022-09-01T22:19:14.972Z,22.10
2022-09-01T22:21:42.925Z,22.00
2022-09-01T22:24:10.846Z,22.00
2022-09-01T22:26:38.872Z,22.00
2022-09-01T22:29:07.543Z,22.00
2022-09-01T22:31:37.464Z,22.00
2022-09-01T22:34:05.581Z,21.90
2022-09-01T22:36:34.933Z,21.90
2022-09-01T22:39:02.645Z,21.90
2022-09-01T22:41:31.648Z,21.90
2022-09-01T22:44:00.428Z,21.80
2022-09-01T22:46:29.676Z,21.80
2022-09-01T22:48:58.089Z,21.80
2022-09-01T22:51:26.829Z,21.70
2022-09-01T22:53:55.010Z,21.70
2022-09-01T22:56:26.225Z,21.70
2022-09-01T22:58:55.072Z,21.70
2022-09-01T23:01:24.828Z,21.60
2022-09-01T23:03:52.510Z,21.60
2022-09-01T23:06:26.849Z,21.60
2022-09-01T23:08:56.988Z,21.60
2022-09-01T23:11:25.173Z,21.60
2022-09-01T23:13:53.051Z,21.50
2022-09-01T23:16:21.815Z,21.50
2022-09-01T23:18:49.823Z,21.50
2022-09-01T23:21:19.222Z,21.50
2022-09-01T23:23:46.976Z,21.40
2022-09-01T23:26:15.306Z,21.40
2022-09-01T23:28:43.526Z,21.40
2022-09-01T23:31:16.411Z,21.40
2022-09-01T23:33:44.391Z,21.30
2022-09-01T23:36:14.415Z,21.30
2022-09-01T23:38:42.819Z,21.30
2022-09-01T23:41:12.793Z,21.30
2022-09-01T23:43:40.443Z,21.20
2022-09-01T23:46:08.988Z,21.20
2022-09-01T23:48:36.610Z,21.20
2022-09-01T23:51:09.250Z,21.10
2022-09-01T23:53:38.087Z,21.10
2022-09-01T23:56:10.296Z,21.10
2022-09-01T23:58:37.976Z,21.10
